Flight Track Log - Related Links

Times and Time Zones

All times are in EDT time to prevent confusion due to time zone crossing. See the JUS327 flight status page for this flight to view local times or setup timezone preferences in your user account.

Time Position Orientation Groundspeed Altitude Reporting Facility
EDT Latitude Longitude Course Direction KTS MPH feet Rate Location/Type
Thu 10:32:54 PM 33.4192 -112.0656 251° West 181 208 2,900  Level Albuquerque Center
Thu 10:33:55 PM 33.4003 -112.1342 252° West 224 258 4,600 1,707 Climbing Albuquerque Center
Thu 10:34:57 PM 33.4061 -112.2217 275° West 263 303 6,400 2,244 Climbing Albuquerque Center
Thu 10:35:58 PM 33.4153 -112.3144 277° West 279 321 9,200 2,098 Climbing Albuquerque Center
Thu 10:37:00 PM 33.4219 -112.4122 275° West 296 341 10,700 2,000 Climbing Albuquerque Center
Thu 10:38:01 PM 33.4319 -112.5203 276° West 324 373 13,300 2,262 Climbing Albuquerque Center
Thu 10:39:02 PM 33.4394 -112.6292 275° West 323 372 15,300 1,902 Climbing Albuquerque Center
Thu 10:40:04 PM 33.4486 -112.7383 276° West 328 377 17,200 1,951 Climbing Albuquerque Center
Thu 10:41:05 PM 33.4622 -112.8747 277° West 338 389 19,300 1,820 Climbing Albuquerque Center
Thu 10:42:06 PM 33.5033 -112.9794 295° West 348 400 20,900 1,561 Climbing Albuquerque Center
Thu 10:43:08 PM 33.5497 -113.0808 299° West 348 400 22,500 1,561 Climbing Albuquerque Center
Thu 10:44:09 PM 33.5856 -113.1908 291° West 350 403 24,100 1,463 Climbing Albuquerque Center
Thu 10:45:11 PM 33.6267 -113.3019 294° West 359 413 25,500 1,317 Climbing Albuquerque Center
Thu 10:46:12 PM 33.6656 -113.4172 292° West 367 422 26,800 1,230 Climbing Albuquerque Center
Thu 10:47:13 PM 33.7081 -113.5319 294° West 373 429 28,000 1,171 Climbing Albuquerque Center
Thu 10:48:15 PM 33.7464 -113.6497 291° West 377 434 29,200 1,024 Climbing Albuquerque Center
Thu 10:49:16 PM 33.7869 -113.7664 293° West 380 437 30,100 1,082 Climbing Albuquerque Center
Thu 10:50:17 PM 33.8378 -113.9094 293° West 386 444 31,400 927 Climbing Albuquerque Center
Thu 10:51:19 PM 33.8806 -114.0258 294° West 382 440 32,000 293 Climbing Albuquerque Center
Thu 10:52:20 PM 33.8972 -114.1564 279° West 393 452 32,000 -49 Level Albuquerque Center
Thu 10:53:22 PM 33.9108 -114.2850 277° West 398 458 31,900 -49 Descending Albuquerque Center
Thu 10:54:23 PM 33.9344 -114.4153 282° West 400 460 31,900  Level Albuquerque Center
Thu 10:54:41 PM 33.9403 -114.4539 280° West 401 461 31,900 76 Level Los Angeles Center
Thu 10:55:42 PM 33.9556 -114.5858 278° West 400 460 32,000  Climbing Los Angeles Center
Thu 10:56:44 PM 33.9786 -114.7439 280° West 401 461 31,900 -48 Descending Los Angeles Center
Thu 10:57:46 PM 33.9950 -114.8764 279° West 401 461 31,900  Level Los Angeles Center
Thu 10:58:48 PM 34.0131 -115.0086 279° West 400 460 31,900 49 Level Los Angeles Center
Thu 10:59:49 PM 34.0314 -115.1392 280° West 398 458 32,000 49 Climbing Los Angeles Center
Thu 11:00:51 PM 34.0492 -115.2719 279° West 402 463 32,000 -48 Level Los Angeles Center
Thu 11:01:53 PM 34.0675 -115.4036 280° West 400 460 31,900 -48 Descending Los Angeles Center
Thu 11:02:55 PM 34.0883 -115.5606 279° West 397 457 31,900  Level Los Angeles Center
Thu 11:03:56 PM 34.1033 -115.6928 278° West 399 459 31,900  Level Los Angeles Center
Thu 11:04:58 PM 34.1189 -115.8242 278° West 397 457 31,900 -145 Level Los Angeles Center
Thu 11:06:00 PM 34.0817 -115.9522 251° West 408 470 31,600 -774 Descending Los Angeles Center
Thu 11:07:02 PM 34.0483 -116.0911 254° West 429 494 30,300 -1,220 Descending Los Angeles Center
Thu 11:08:03 PM 34.0350 -116.2386 264° West 440 506 29,100 -1,512 Descending Los Angeles Center
Thu 11:09:05 PM 34.0200 -116.3828 263° West 437 503 27,200 -2,032 Descending Los Angeles Center
Thu 11:10:07 PM 33.9975 -116.5456 261° West 416 479 24,900 -2,032 Descending Los Angeles Center
Thu 11:11:09 PM 33.9883 -116.6750 265° West 395 455 23,000 -1,935 Descending Los Angeles Center
Thu 11:12:11 PM 33.9783 -116.8058 265° West 394 453 20,900 -2,283 Descending Los Angeles Center
Thu 11:13:02 PM 33.9667 -116.9167 263° West 358 412 18,700 -2,000 Descending Southern California TRACON
Thu 11:13:56 PM 33.9667 -117.0167 270° West 325 374 17,400 -1,000 Descending Southern California TRACON
Thu 11:14:56 PM 33.9500 -117.1333 260° West 339 390 16,800 -945 Descending Southern California TRACON
Thu 11:16:03 PM 33.9333 -117.2500 260° West 310 357 15,400 -1,417 Descending Southern California TRACON
Thu 11:17:03 PM 33.9500 -117.3500 281° West 304 350 13,800 -1,632 Descending Southern California TRACON
Thu 11:17:57 PM 33.9333 -117.4500 259° West 317 365 12,300 -1,350 Descending Southern California TRACON
Thu 11:19:03 PM 33.9667 -117.5500 292° West 293 337 11,100 -1,048 Descending Southern California TRACON
Thu 11:20:03 PM 33.9833 -117.6333 284° West 305 351 10,100 -1,000 Descending Southern California TRACON
Thu 11:21:03 PM 34.0000 -117.7333 281° West 291 335 9,100 -789 Descending Southern California TRACON
Thu 11:21:57 PM 34.0000 -117.8333 270° West 296 341 8,600 -684 Descending Southern California TRACON
Thu 11:22:57 PM 33.9833 -117.9167 256° West 263 303 7,800 -1,150 Descending Southern California TRACON
Thu 11:23:57 PM 33.9667 -118.0000 256° West 250 288 6,300 -1,400 Descending Southern California TRACON
Thu 11:24:57 PM 33.9667 -118.0833 270° West 213 245 5,000 -1,156 Descending Southern California TRACON
Thu 11:25:46 PM 33.9636 -118.1275 265° West 202 232 4,200 -973 Descending Los Angeles Center
Thu 11:26:48 PM 33.9572 -118.1878 263° West 186 214 3,200 -927 Descending Los Angeles Center
Thu 11:27:49 PM 33.9517 -118.2458 263° West 180 207 2,300 -878 Descending Los Angeles Center
Thu 11:28:51 PM 33.9458 -118.3014 263° West 174 200 1,400 -823 Descending Los Angeles Center
Thu 11:29:53 PM 33.9417 -118.3503 264° West 161 185 600 -629 Descending Los Angeles Center
Thu 11:30:55 PM 33.9372 -118.3958 263° West 144 166 100 -484 Descending Los Angeles Center
Thu 11:32:00 PM 33.9333 -118.4000 270° West  Level FlightAware Approximate

Login

Don't have an account? Register now (free) for customized features, flight alerts, and more!